Home > Products > Valid Products > TAF

000
FTUS46 KPDT 191100
TAFRDM
TAF
KRDM 191120Z 1912/2012 16005KT P6SM SCT200
     FM192000 34009KT P6SM FEW250
     FM200400 16005KT P6SM SKC=



000
FTUS46 KPDT 191100
TAFDLS
TAF
KDLS 191120Z 1912/2012 28005KT P6SM SCT040 BKN050
     FM192200 31015G22KT P6SM SCT300
     FM200300 30008KT P6SM SKC=



000
FTUS46 KPDT 191100
TAFYKM
TAF
KYKM 191120Z 1912/2012 27005KT P6SM SCT200
     FM192000 31007KT P6SM FEW250
     FM200600 27008KT P6SM SKC=



000
FTUS46 KPDT 191100
TAFPSC
TAF
KPSC 191120Z 1912/2012 20009KT P6SM SCT200
     FM191600 22008KT P6SM FEW200
     FM200200 VRB05KT P6SM SKC=



000
FTUS46 KPDT 191100
TAFALW
TAF
KALW 191120Z 1912/2012 18009KT P6SM SCT200
     FM191600 22009KT P6SM FEW200
     FM200400 18006KT P6SM SKC=



000
FTUS46 KPDT 191100
TAFPDT
TAF
KPDT 191120Z 1912/2012 23008KT P6SM SCT200
     FM191600 27011KT P6SM FEW300
     FM200400 16006KT P6SM SKC=



000
FTUS46 KPDT 190500
TAFRDM
TAF
KRDM 190527Z 1906/2006 VRB05KT P6SM BKN050
     FM191000 17007KT P6SM SCT080
     FM192000 34010KT P6SM FEW250=



000
FTUS46 KPDT 190500
TAFYKM
TAF
KYKM 190527Z 1906/2006 VRB05KT P6SM BKN160
     FM191800 34007KT P6SM FEW250=



000
FTUS46 KPDT 190500
TAFPSC
TAF
KPSC 190527Z 1906/2006 VRB05KT P6SM SCT080 BKN160
     FM191600 23008KT P6SM FEW150
     FM200200 VRB05KT P6SM SKC=



000
FTUS46 KPDT 190500
TAFPDT
TAF
KPDT 190527Z 1906/2006 25016KT P6SM SCT080 BKN160
     FM191000 23009KT P6SM SCT180
     FM191600 28010G15KT P6SM FEW250
     FM192300 30009KT P6SM FEW250
     FM200400 15005KT P6SM SKC=



000
FTUS46 KPDT 190500
TAFALW
TAF
KALW 190527Z 1906/2006 20011KT P6SM SCT070 BKN080 BKN250
     FM191200 20009KT P6SM FEW200
     FM191600 22009G15KT P6SM FEW200
     FM192100 22009KT P6SM FEW120
     FM200400 13006KT P6SM SKC=



000
FTUS46 KPDT 190500
TAFDLS
TAF
KDLS 190527Z 1906/2006 29009KT P6SM SCT070
     FM191600 31009G14KT P6SM SCT200
     FM192100 31014G22KT P6SM FEW250
     FM200300 29008KT P6SM SKC=



000
FTUS46 KPDT 190300 AAB
TAFPDT
TAF AMD
KPDT 190336Z 1904/1924 27015G25KT P6SM SCT100 BKN150
     FM190900 24010KT P6SM FEW070 BKN090
     FM191000 21008KT P6SM SCT070
     FM191700 27010KT P6SM SCT120=



000
FTUS46 KPDT 190300 AAB
TAFPSC
TAF AMD
KPSC 190322Z 1903/1924 VRB05KT P6SM SCT070 BKN150
     FM190600 20008KT P6SM SCT150
     FM191800 22010KT P6SM SCT130=



000
FTUS46 KPDT 190300 AAA
TAFALW
TAF AMD
KALW 190321Z 1903/1924 21008G15KT P6SM BKN080 OVC120
     FM190700 20009KT P6SM SCT080 BKN150
     FM191000 18008KT P6SM SCT090
     FM191700 22009KT P6SM SCT150=



000
FTUS46 KPDT 190300 AAC
TAFYKM
TAF AMD
KYKM 190319Z 1903/1924 VRB05KT P6SM FEW120
     FM190600 27006KT P6SM FEW090 SCT150
     FM191500 VRB05KT P6SM SCT120=



000
FTUS46 KPDT 190300 AAB
TAFDLS
TAF AMD
KDLS 190316Z 1903/1924 29007KT P6SM BKN080
     FM190600 30008KT P6SM FEW080 SCT120
     FM191600 31012G24KT P6SM FEW120=



000
FTUS46 KPDT 190200 AAB
TAFYKM
TAF AMD
KYKM 190213Z 1902/1924 31008G15KT P6SM FEW080 SCT130
     FM190600 27006KT P6SM FEW090 SCT150
     FM191500 VRB05KT P6SM SCT120=



000
FTUS46 KPDT 190100 AAA
TAFPSC
TAF AMD
KPSC 190139Z 1902/1924 24010G20KT P6SM SCT150
     FM190600 20008KT P6SM SCT150
     FM191800 22010KT P6SM SCT130=



000
FTUS46 KPDT 190100 AAA
TAFYKM
TAF AMD
KYKM 190138Z 1902/1924 31015G25KT P6SM SCT080 BKN100
     FM190600 27006KT P6SM FEW090 SCT120
     FM191500 VRB05KT P6SM SCT120=



000
FTUS46 KPDT 190000 AAA
TAFPDT
TAF AMD
KPDT 190000Z 1900/1924 27015G25KT P6SM SCT100 BKN150
     FM190400 24010KT P6SM FEW070 BKN090
     FM191000 21008KT P6SM SCT070
     FM191700 27010KT P6SM SCT120=



000
FTUS46 KPDT 182300 AAA
TAFDLS
TAF AMD
KDLS 182358Z 1900/1924 31008G18KT P6SM BKN080
     FM190600 30008KT P6SM FEW080 SCT120
     FM191600 31012G24KT P6SM FEW120=



000
FTUS46 KPDT 182300
TAFPDT
TAF
KPDT 182320Z 1900/1924 27014KT P6SM SCT090 BKN120
     FM190400 24010KT P6SM FEW070 BKN090
     FM191000 21008KT P6SM SCT070
     FM191700 27010KT P6SM SCT120=



000
FTUS46 KPDT 182300
TAFRDM
TAF
KRDM 182320Z 1900/1924 33010KT P6SM SCT070 BKN090
     FM190500 VRB04KT P6SM FEW090
     FM192000 33008KT P6SM SKC=



000
FTUS46 KPDT 182300
TAFALW
TAF
KALW 182320Z 1900/1924 24012G20KT P6SM SCT080 BKN100
     FM190500 20009KT P6SM SCT070 BKN090
     FM191000 18008KT P6SM SCT070
     FM191700 22009KT P6SM SCT120=



000
FTUS46 KPDT 182300
TAFYKM
TAF
KYKM 182320Z 1900/1924 32010KT P6SM SCT070 BKN090
     FM190500 27006KT P6SM FEW090 SCT120
     FM191500 VRB05KT P6SM SCT120=



000
FTUS46 KPDT 182300
TAFDLS
TAF
KDLS 182320Z 1900/1924 30015G25KT P6SM BKN080
     FM190600 30008KT P6SM FEW080 SCT120
     FM191600 31012G24KT P6SM FEW120=



000
FTUS46 KPDT 182300
TAFPSC
TAF
KPSC 182320Z 1900/1924 24017G25KT P6SM SCT100
     FM190600 20008KT P6SM SCT120
     FM191800 22010KT P6SM SCT120=



000
FTUS46 KPDT 182100 AAA
TAFYKM
TAF AMD
KYKM 182134Z 1822/1918 VRB04KT P6SM SCT070 BKN100
     FM182300 29010KT P6SM SCT070 BKN100
     FM190500 27006KT P6SM SCT100=



000
FTUS46 KPDT 182100 AAA
TAFRDM
TAF AMD
KRDM 182132Z 1822/1918 33010KT P6SM SCT070 BKN090
     FM190500 VRB04KT P6SM FEW100=



000
FTUS46 KPDT 182000 AAA
TAFALW
TAF AMD
KALW 182035Z 1821/1918 22012KT P6SM SCT080 BKN100
     FM190400 20009KT P6SM SCT070 BKN090
     FM191000 19008KT P6SM SCT070=



000
FTUS46 KPDT 182000 AAA
TAFPDT
TAF AMD
KPDT 182028Z 1820/1918 27012KT P6SM SCT070 BKN100
     FM190400 24012KT P6SM SCT070 BKN090
     FM191000 21008KT P6SM SCT070=



000
FTUS46 KPDT 181700
TAFDLS
TAF
KDLS 181725Z 1818/1918 30015G25KT P6SM SCT080 BKN100
     FM190600 30008KT P6SM FEW080
     FM191600 31012KT P6SM FEW120=



000
FTUS46 KPDT 181700
TAFPSC
TAF
KPSC 181725Z 1818/1918 21010KT P6SM BKN100
     FM182200 23012G20KT P6SM BKN100
     FM190600 20008KT P6SM SCT100=



000
FTUS46 KPDT 181700
TAFRDM
TAF
KRDM 181725Z 1818/1918 22007KT P6SM -SHRA SCT060 BKN080
     FM182100 30010G19KT P6SM SCT070 BKN090
     FM190500 VRB04KT P6SM FEW100=



000
FTUS46 KPDT 181700
TAFPDT
TAF
KPDT 181725Z 1818/1918 27015G25KT P6SM SCT070 BKN100
     FM190400 24012KT P6SM SCT070 BKN090
     FM191000 21008KT P6SM SCT070=



000
FTUS46 KPDT 181700
TAFYKM
TAF
KYKM 181725Z 1818/1918 29006KT P6SM SCT080 BKN100
     FM182100 28011G19KT P6SM BKN100
     FM190500 27006KT P6SM SCT100=



000
FTUS46 KPDT 181700
TAFALW
TAF
KALW 181725Z 1818/1918 22012G24KT P6SM SCT080 BKN100
     FM190400 20009KT P6SM SCT070 BKN090
     FM191000 19008KT P6SM SCT070=



000
FTUS46 KPDT 181700 AAA
TAFRDM
TAF AMD
KRDM 181702Z 1817/1912 22007KT P6SM -SHRA BKN080
     FM182100 30010G19KT P6SM SCT070 BKN090
     FM190300 30008KT P6SM SCT070 BKN090=



000
FTUS46 KPDT 181600 AAA
TAFPDT
TAF AMD
KPDT 181607Z 1816/1912 16005KT P6SM SCT120
     FM181800 27015G25KT P6SM SCT090 BKN120
     FM190400 24015G22KT P6SM BKN070 BKN090=



000
FTUS46 KPDT 181600 AAA
TAFPDT
TAF AMD
KPDT 181607Z 1816/1912 16005KT P6SM SCT120
     FM181800 27015G25KT P6SM SCT090 BKN120
     FM190400 24015G22KT P6SM BKN070 BKN090=



000
FTUS46 KPDT 181600 AAA
TAFDLS
TAF AMD
KDLS 181606Z 1816/1912 30015KT P6SM BKN120
     FM182000 31017G27KT P6SM SCT080 BKN100
     FM190300 30010KT P6SM BKN050 BKN080=



000
FTUS46 KPDT 181600 AAA
TAFDLS
TAF AMD
KDLS 181606Z 1816/1912 30015KT P6SM BKN120
     FM182000 31017G27KT P6SM SCT080 BKN100
     FM190300 30010KT P6SM BKN050 BKN080=



000
FTUS46 KPDT 181200 CCA
TAFRDM
TAF COR
KRDM 181218Z 1812/1912 18007KT P6SM SCT080 BKN110
     FM181800 28008G15KT P6SM SCT070 BKN100
     FM182100 30010G19KT P6SM VCTS SCT070CB BKN090
     FM190300 30008KT P6SM SCT070 BKN090=



000
FTUS46 KPDT 181100
TAFYKM
TAF
KYKM 181139Z 1812/1912 29006KT P6SM SCT100 BKN120
     FM181600 VRB05KT P6SM SCT080 BKN120
     FM182100 28011G19KT P6SM SCT070 BKN100
     FM190300 30009KT P6SM FEW070 SCT090=



000
FTUS46 KPDT 181100
TAFDLS
TAF
KDLS 181139Z 1812/1912 33011KT P6SM SCT120 BKN130
     FM182000 31017G27KT P6SM SCT080 BKN100
     FM190300 30010KT P6SM BKN050 BKN080=



000
FTUS46 KPDT 181100
TAFPDT
TAF
KPDT 181139Z 1812/1912 15006KT P6SM FEW150 SCT200
     FM181400 18008KT P6SM FEW120 FEW150
     FM181600 24010G20KT P6SM SCT120
     FM181800 27017G27KT P6SM SCT090 BKN120
     FM190400 24015G22KT P6SM BKN070 BKN090=



000
FTUS46 KPDT 181100
TAFALW
TAF
KALW 181139Z 1812/1912 19010KT P6SM FEW150 FEW200
     FM181500 VRB05KT P6SM FEW120 FEW150
     FM181900 23014G24KT P6SM SCT090 BKN120
     FM190400 20010KT P6SM BKN070 BKN090=



000
FTUS46 KPDT 181100
TAFPSC
TAF
KPSC 181139Z 1812/1912 VRB05KT P6SM SCT150 BKN180
     FM181800 22007KT P6SM SCT100 BKN150
     FM182000 22012G20KT P6SM SCT100 BKN120
     FM190300 27010KT P6SM BKN070 BKN090=



000
FTUS46 KPDT 181100
TAFRDM
TAF
KRDM 181139Z 1812/1912 34008G15KT P6SM SCT080 BKN110
     FM181800 18007KT P6SM SCT070 BKN100
     FM182100 30010G18KT P6SM VCTS SCT070CB BKN090=



000
FTUS46 KPDT 180500 AAA
TAFDLS
TAF AMD
KDLS 180532Z 1806/1906 33008G15KT P6SM SCT150 BKN200
     FM180900 31007KT P6SM BKN100 OVC150
     FM181200 31006KT P6SM OVC070
     FM182000 30012G22KT P6SM SCT070 BKN150=



000
FTUS46 KPDT 180500
TAFRDM
TAF
KRDM 180521Z 1806/1906 34008G15KT P6SM SCT080 BKN110
     FM181800 18007KT P6SM SCT070 BKN100
     FM182100 30008G15KT P6SM VCTS SCT060CB BKN090=



000
FTUS46 KPDT 180500
TAFPDT
TAF
KPDT 180521Z 1806/1906 13006KT P6SM SCT130 BKN200
     FM181200 VRB05KT P6SM SCT080 BKN150
     FM182100 27010G20KT P6SM SCT070 BKN120=



000
FTUS46 KPDT 180500
TAFDLS
TAF
KDLS 180521Z 1806/1906 27008G15KT P6SM SCT150 BKN200
     FM180900 31007KT P6SM BKN100 OVC150
     FM181200 31006KT P6SM OVC070
     FM182000 30012G22KT P6SM SCT070 BKN150=



000
FTUS46 KPDT 180500
TAFPSC
TAF
KPSC 180521Z 1806/1906 VRB04KT P6SM SCT150 OVC250
     FM181200 VRB05KT P6SM SCT120 BKN180
     FM181800 22007KT P6SM SCT100 BKN150
     FM182100 22008G15KT P6SM SCT090 BKN120=



000
FTUS46 KPDT 180500
TAFALW
TAF
KALW 180521Z 1806/1906 12006KT P6SM SCT140 BKN200
     FM181000 15005KT P6SM SCT090 BKN150
     FM182200 23008G15KT P6SM SCT080 BKN130=



000
FTUS46 KPDT 180500
TAFYKM
TAF
KYKM 180521Z 1806/1906 VRB05KT P6SM SCT120 BKN180
     FM181200 27007KT P6SM SCT100 BKN150
     FM181600 VRB05KT P6SM SCT080 BKN120
     FM182000 26008KT P6SM SCT070 BKN100=



000
FTUS46 KPDT 180400 AAB
TAFDLS
TAF AMD
KDLS 180410Z 1804/1824 27010G20KT P6SM SCT150 BKN200
     FM180900 31008KT P6SM BKN100 OVC150
     FM181200 31006KT P6SM OVC070
     FM182000 30016G24KT P6SM SCT070=



000
FTUS46 KPDT 180100 AAA
TAFDLS
TAF AMD
KDLS 180150Z 1802/1824 32012G22KT P6SM SCT150 BKN200
     FM180900 31008KT P6SM BKN100 OVC150
     FM181200 31006KT P6SM OVC070
     FM182000 30016G24KT P6SM SCT070=



000
FTUS46 KPDT 172300
TAFRDM
TAF
KRDM 172323Z 1800/1824 VRB05KT P6SM SCT100 BKN150
     FM180500 VRB04KT P6SM BKN080
     FM182000 32012G18KT P6SM SCT080=



000
FTUS46 KPDT 172300
TAFPSC
TAF
KPSC 172323Z 1800/1824 VRB05KT P6SM SCT150 BKN200
     FM180300 23004KT P6SM SCT150 OVC200
     FM181200 23004KT P6SM SCT100 BKN150
     FM181900 23008KT P6SM SCT100=



000
FTUS46 KPDT 172300
TAFYKM
TAF
KYKM 172323Z 1800/1824 VRB05KT P6SM SCT150 BKN200
     FM180300 30007KT P6SM SCT100 BKN150
     FM181200 30007KT P6SM BKN080
     FM181700 VRB05KT P6SM BKN080
     FM182000 26008KT P6SM SCT080=



000
FTUS46 KPDT 172300
TAFALW
TAF
KALW 172323Z 1800/1824 22006KT P6SM SCT150 BKN200
     FM180400 17008KT P6SM SCT100 OVC150
     FM181200 20007KT P6SM SCT080 BKN120
     FM182000 24012KT P6SM SCT080=



000
FTUS46 KPDT 172300
TAFPDT
TAF
KPDT 172323Z 1800/1824 30007KT P6SM FEW150 BKN200
     FM180400 19007KT P6SM SCT100 BKN150
     FM181200 22006KT P6SM SCT080 BKN120
     FM182000 27013G20KT P6SM SCT080=



000
FTUS46 KPDT 172300
TAFDLS
TAF
KDLS 172323Z 1800/1824 34007KT P6SM SCT150 BKN200
     FM180300 31008KT P6SM BKN100 OVC150
     FM181200 31006KT P6SM OVC070
     FM182000 30016G24KT P6SM SCT070=



000
FTUS46 KPDT 172000 AAA
TAFRDM
TAF AMD
KRDM 172006Z 1720/1818 20008KT P6SM BKN150
     FM172200 32008KT P6SM SCT100 BKN150
     FM180500 VRB04KT P6SM BKN080=



000
FTUS46 KPDT 171700
TAFALW
TAF
KALW 171732Z 1718/1818 VRB05KT P6SM SCT150 BKN200
     FM172100 23007KT P6SM SCT150 BKN200
     FM180400 16008KT P6SM SCT100 OVC150
     FM181200 19006KT P6SM SCT080 BKN120=



000
FTUS46 KPDT 171700
TAFPSC
TAF
KPSC 171732Z 1718/1818 VRB05KT P6SM SCT150 BKN200
     FM180300 23004KT P6SM SCT150 OVC200
     FM181200 23004KT P6SM SCT100 BKN150=



000
FTUS46 KPDT 171700
TAFPDT
TAF
KPDT 171732Z 1718/1818 VRB05KT P6SM SCT150 BKN200
     FM172000 30010KT P6SM FEW150 BKN200
     FM180400 19007KT P6SM SCT100 BKN150
     FM181200 21005KT P6SM SCT080 BKN120=



000
FTUS46 KPDT 171700
TAFDLS
TAF
KDLS 171732Z 1718/1818 32005KT P6SM BKN150
     FM172100 32010KT P6SM SCT150 BKN200
     FM180300 30008KT P6SM BKN100 OVC150
     FM181200 30005KT P6SM OVC070=



000
FTUS46 KPDT 171700
TAFRDM
TAF
KRDM 171732Z 1718/1818 VRB05KT P6SM BKN150
     FM172200 32008KT P6SM SCT100 BKN150
     FM180500 VRB04KT P6SM BKN080=



000
FTUS46 KPDT 171700
TAFYKM
TAF
KYKM 171732Z 1718/1818 VRB05KT P6SM SCT150 BKN200
     FM180300 30007KT P6SM SCT100 BKN150
     FM181200 30007KT P6SM BKN080=



000
FTUS46 KPDT 171100
TAFDLS
TAF
KDLS 171140Z 1712/1812 32005KT P6SM BKN150 OVC200
     FM171600 33009KT P6SM BKN150
     FM172100 33010KT P6SM SCT150 BKN200
     FM180300 30008KT P6SM SCT120 OVC150=



000
FTUS46 KPDT 171100
TAFYKM
TAF
KYKM 171140Z 1712/1812 27006KT P6SM FEW130 SCT150 OVC200
     FM171800 VRB05KT P6SM BKN150 OVC200
     FM172100 16006KT P6SM SCT130 OVC180
     FM180100 VRB03KT P6SM SCT120 OVC150
     FM180500 33008KT P6SM BKN110 OVC130=



000
FTUS46 KPDT 171100
TAFALW
TAF
KALW 171140Z 1712/1812 12006KT P6SM SCT150 BKN200
     FM171600 VRB05KT P6SM SCT120 BKN180
     FM172100 25008KT P6SM SCT070 BKN100
     FM180400 18008KT P6SM SCT120 OVC150=



000
FTUS46 KPDT 171100
TAFPDT
TAF
KPDT 171140Z 1712/1812 14007KT P6SM SCT150 BKN200
     FM171600 32007KT P6SM SCT100 BKN180
     FM172100 30010KT P6SM SCT070 BKN100
     FM180400 19007KT P6SM SCT120 OVC150=



000
FTUS46 KPDT 171100
TAFPSC
TAF
KPSC 171140Z 1712/1812 VRB05KT P6SM FEW110 SCT150 BKN200
     FM171500 VRB05KT P6SM SCT130 BKN180
     FM172100 32008KT P6SM SCT090 BKN130
     FM180400 20005KT P6SM SCT120 OVC150=



000
FTUS46 KPDT 171100
TAFRDM
TAF
KRDM 171140Z 1712/1812 18005KT P6SM SCT130 OVC150
     FM171800 VRB05KT P6SM BKN140 OVC170
     FM172200 32008KT P6SM SCT130 BKN180
     FM180400 VRB04KT P6SM BKN120 OVC150=



000
FTUS46 KPDT 170800 AAA
TAFDLS
TAF AMD
KDLS 170848Z 1709/1806 27006KT P6SM BKN150 BKN250
     FM171200 VRB05KT P6SM OVC250
     FM171600 33009KT P6SM BKN150
     FM172100 33008G15KT P6SM SCT090 OVC150=



000
FTUS46 KPDT 170500
TAFALW
TAF
KALW 170520Z 1706/1806 VRB05KT P6SM SCT150 BKN250
     FM170900 14005KT P6SM SCT150 BKN250
     FM171600 VRB05KT P6SM SCT120 BKN200
     FM172100 25008G15KT P6SM SCT070 BKN100=



000
FTUS46 KPDT 170500
TAFDLS
TAF
KDLS 170520Z 1706/1806 28010G20KT P6SM BKN150 OVC250
     FM171200 VRB05KT P6SM OVC250
     FM171600 33009KT P6SM BKN150
     FM172100 33008G15KT P6SM SCT090 OVC150=



000
FTUS46 KPDT 170500
TAFYKM
TAF
KYKM 170520Z 1706/1806 26006KT P6SM BKN150 OVC250
     FM170900 27006KT P6SM FEW130 OVC200
     FM171800 VRB05KT P6SM SCT100 BKN150
     FM172100 12006KT P6SM SCT080 BKN130=



000
FTUS46 KPDT 170500
TAFPSC
TAF
KPSC 170520Z 1706/1806 VRB03KT P6SM SCT150 BKN250
     FM171500 VRB05KT P6SM SCT130 BKN200
     FM172100 32008G15KT P6SM SCT090 BKN130=



000
FTUS46 KPDT 170500
TAFRDM
TAF
KRDM 170520Z 1706/1806 VRB04KT P6SM SCT120 BKN200
     FM171000 16005KT P6SM SCT100 BKN150
     FM171600 VRB05KT P6SM SCT090 BKN140
     FM172200 32008G15KT P6SM SCT070 BKN100=



000
FTUS46 KPDT 170500
TAFPDT
TAF
KPDT 170520Z 1706/1806 11007KT P6SM SCT150 BKN250
     FM170900 14005KT P6SM SCT150 BKN250
     FM171600 32007KT P6SM SCT100 BKN200
     FM172100 30008G15KT P6SM SCT070 BKN100=



000
FTUS46 KPDT 170200 AAC
TAFDLS
TAF AMD
KDLS 170246Z 1703/1724 29010G20KT P6SM SKC
     FM170300 30010G20KT P6SM FEW180 BKN250
     FM170600 31006KT P6SM BKN120 OVC180
     FM171200 VRB05KT P6SM OVC130
     FM171600 33009KT P6SM BKN150=



000
FTUS46 KPDT 170000 AAB
TAFDLS
TAF AMD
KDLS 170059Z 1701/1724 29010G20KT P6SM SKC
     FM170300 31009KT P6SM FEW180 BKN250
     FM170600 31006KT P6SM BKN120 OVC180
     FM171200 VRB05KT P6SM OVC130
     FM171600 33009KT P6SM BKN150=



000
FTUS46 KPDT 170000 AAA
TAFDLS
TAF AMD
KDLS 170012Z 1700/1724 29010G20KT P6SM SKC
      TEMPO 1700/1703 5SM HZ
     FM170300 31009KT P6SM FEW180 BKN250
     FM170600 31006KT P6SM BKN120 OVC180
     FM171200 VRB05KT P6SM OVC130
     FM171600 33009KT P6SM BKN150=



000
FTUS46 KPDT 162300
TAFRDM
TAF
KRDM 162337Z 1700/1724 31009G14KT P6SM SCT180
     FM170700 14005KT P6SM BKN180
     FM171200 14004KT P6SM SCT120 OVC180
     FM171900 32010KT P6SM BKN150=



000
FTUS46 KPDT 162300
TAFYKM
TAF
KYKM 162337Z 1700/1724 16006KT P6SM SCT220
     FM170300 30005KT P6SM BKN200
     FM170900 27006KT P6SM FEW120 OVC180
     FM171800 VRB05KT P6SM BKN150=



000
FTUS46 KPDT 162300
TAFDLS
TAF
KDLS 162337Z 1700/1724 31014G19KT P6SM SKC
     FM170300 31009KT P6SM FEW180 BKN250
     FM170600 31006KT P6SM BKN120 OVC180
     FM171200 VRB05KT P6SM OVC130
     FM171600 33009KT P6SM BKN150=



000
FTUS46 KPDT 162300
TAFALW
TAF
KALW 162337Z 1700/1724 VRB05KT P6SM SKC
     FM170300 14006KT P6SM FEW250
     FM170600 14006KT P6SM BKN180
     FM171500 VRB04KT P6SM SCT180
     FM171900 30005KT P6SM BKN200=



000
FTUS46 KPDT 162300
TAFPDT
TAF
KPDT 162337Z 1700/1724 34006KT P6SM SKC
     FM170500 15006KT P6SM SCT200
     FM170900 14005KT P6SM FEW150 BKN200
     FM171600 32008KT P6SM SCT200
     FM172100 30008KT P6SM OVC200=



000
FTUS46 KPDT 162300
TAFPSC
TAF
KPSC 162337Z 1700/1724 VRB05KT P6SM FEW250
     FM170600 VRB04KT P6SM SCT220
     FM171500 VRB04KT P6SM SCT180=



000
FTUS46 KPDT 162100 AAA
TAFRDM
TAF AMD
KRDM 162109Z 1621/1718 24013G18KT P6SM SKC
     FM162300 32012G17KT P6SM FEW150 SCT250
     FM170300 31007KT P6SM FEW120 OVC180
     FM170700 15004KT P6SM FEW100 OVC180=



000
FTUS46 KPDT 161700
TAFPSC
TAF
KPSC 161733Z 1618/1718 32006KT P6SM FEW250
     FM170000 VRB05KT P6SM SKC
     FM170600 VRB04KT P6SM FEW180 SCT250
     FM171000 VRB03KT P6SM FEW120 OVC150=



000
FTUS46 KPDT 161700
TAFDLS
TAF
KDLS 161733Z 1618/1718 33008KT P6SM FEW200 BKN250
     FM162200 32011G16KT P6SM FEW150 BKN250
     FM170300 30006KT P6SM FEW180 BKN250
     FM170600 31004KT P6SM OVC120
     FM171200 VRB04KT P6SM FEW100 OVC140=



000
FTUS46 KPDT 161700
TAFYKM
TAF
KYKM 161733Z 1618/1718 VRB05KT P6SM SCT200
     FM162100 12004KT P6SM FEW180 BKN250
     FM170400 28005KT P6SM FEW150 SCT250
     FM170900 27006KT P6SM FEW100 OVC130=



000
FTUS46 KPDT 161700
TAFRDM
TAF
KRDM 161733Z 1618/1718 16007KT P6SM SKC
     FM162000 33008KT P6SM FEW250
     FM162300 33010G15KT P6SM FEW150 SCT250
     FM170300 15005KT P6SM FEW120 OVC180
     FM170700 15004KT P6SM FEW100 OVC180=



000
FTUS46 KPDT 161700
TAFPDT
TAF
KPDT 161733Z 1618/1718 31009KT P6SM FEW200
     FM162100 31008KT P6SM SKC
     FM170300 15005KT P6SM FEW150
     FM170600 13004KT P6SM SCT150 BKN250
     FM170900 13006KT P6SM FEW120 OVC150=



000
FTUS46 KPDT 161700
TAFALW
TAF
KALW 161733Z 1618/1718 24008KT P6SM FEW220
     FM162200 24008KT P6SM SKC
     FM170300 14007KT P6SM FEW150 SCT250
     FM171000 14006KT P6SM FEW100 OVC130=



    US Dept of Commerce
    National Oceanic and Atmospheric Administration
    National Weather Service
    1325 East West Highway
    Silver Spring, MD 20910
    Page Author: NWS Internet Services Team
Disclaimer
Information Quality
Credits
Glossary
Privacy Policy
Freedom of Information Act (FOIA)
About Us
Career Opportunities